sensor_id;sensor_type;location;lat;lon;timestamp;P1;durP1;ratioP1;P2;durP2;ratioP2
54835;SDS011;43486;43.574;1.476;2023-11-21T00:01:51;4.45;;;2.00;;
54835;SDS011;43486;43.574;1.476;2023-11-21T00:04:17;12.95;;;1.85;;
54835;SDS011;43486;43.574;1.476;2023-11-21T00:06:42;11.35;;;2.17;;
54835;SDS011;43486;43.574;1.476;2023-11-21T00:09:07;5.63;;;2.38;;
54835;SDS011;43486;43.574;1.476;2023-11-21T00:11:33;4.50;;;1.95;;
54835;SDS011;43486;43.574;1.476;2023-11-21T00:13:59;6.50;;;2.58;;
54835;SDS011;43486;43.574;1.476;2023-11-21T00:16:24;5.45;;;2.35;;
54835;SDS011;43486;43.574;1.476;2023-11-21T00:18:50;3.83;;;1.65;;
54835;SDS011;43486;43.574;1.476;2023-11-21T00:21:16;8.55;;;2.17;;
54835;SDS011;43486;43.574;1.476;2023-11-21T00:23:41;9.93;;;2.65;;
54835;SDS011;43486;43.574;1.476;2023-11-21T00:26:07;8.45;;;3.13;;
54835;SDS011;43486;43.574;1.476;2023-11-21T00:28:32;10.35;;;2.15;;
54835;SDS011;43486;43.574;1.476;2023-11-21T00:30:58;5.72;;;2.35;;
54835;SDS011;43486;43.574;1.476;2023-11-21T00:33:23;3.10;;;1.67;;
54835;SDS011;43486;43.574;1.476;2023-11-21T00:35:50;7.07;;;2.15;;
54835;SDS011;43486;43.574;1.476;2023-11-21T00:38:15;8.55;;;2.40;;
54835;SDS011;43486;43.574;1.476;2023-11-21T00:40:44;3.80;;;1.70;;
54835;SDS011;43486;43.574;1.476;2023-11-21T00:43:10;4.68;;;1.83;;
54835;SDS011;43486;43.574;1.476;2023-11-21T00:45:35;8.25;;;2.10;;
54835;SDS011;43486;43.574;1.476;2023-11-21T00:48:01;5.18;;;2.33;;
54835;SDS011;43486;43.574;1.476;2023-11-21T00:50:27;5.97;;;2.30;;
54835;SDS011;43486;43.574;1.476;2023-11-21T00:52:52;6.10;;;1.60;;
54835;SDS011;43486;43.574;1.476;2023-11-21T00:55:18;4.35;;;1.45;;
54835;SDS011;43486;43.574;1.476;2023-11-21T00:57:43;3.90;;;2.20;;
54835;SDS011;43486;43.574;1.476;2023-11-21T01:00:09;3.65;;;1.90;;
54835;SDS011;43486;43.574;1.476;2023-11-21T01:02:45;3.53;;;1.63;;
54835;SDS011;43486;43.574;1.476;2023-11-21T01:05:12;5.13;;;1.88;;
54835;SDS011;43486;43.574;1.476;2023-11-21T01:07:37;5.10;;;2.13;;
54835;SDS011;43486;43.574;1.476;2023-11-21T01:10:03;4.18;;;1.77;;
54835;SDS011;43486;43.574;1.476;2023-11-21T01:12:32;3.88;;;1.52;;
54835;SDS011;43486;43.574;1.476;2023-11-21T01:14:59;4.30;;;1.52;;
54835;SDS011;43486;43.574;1.476;2023-11-21T01:17:25;5.65;;;2.00;;
54835;SDS011;43486;43.574;1.476;2023-11-21T01:19:51;3.92;;;1.70;;
54835;SDS011;43486;43.574;1.476;2023-11-21T01:22:16;4.70;;;1.60;;
54835;SDS011;43486;43.574;1.476;2023-11-21T01:24:43;5.47;;;1.98;;
54835;SDS011;43486;43.574;1.476;2023-11-21T01:27:08;3.80;;;2.03;;
54835;SDS011;43486;43.574;1.476;2023-11-21T01:29:33;2.20;;;1.33;;
54835;SDS011;43486;43.574;1.476;2023-11-21T01:32:00;4.50;;;1.65;;
54835;SDS011;43486;43.574;1.476;2023-11-21T01:34:27;9.30;;;2.53;;
54835;SDS011;43486;43.574;1.476;2023-11-21T01:36:52;5.75;;;1.98;;
54835;SDS011;43486;43.574;1.476;2023-11-21T01:39:17;4.97;;;1.60;;
54835;SDS011;43486;43.574;1.476;2023-11-21T01:41:48;8.05;;;1.70;;
54835;SDS011;43486;43.574;1.476;2023-11-21T01:44:15;9.25;;;3.08;;
54835;SDS011;43486;43.574;1.476;2023-11-21T01:46:42;3.15;;;1.63;;
54835;SDS011;43486;43.574;1.476;2023-11-21T01:49:07;7.95;;;2.25;;
54835;SDS011;43486;43.574;1.476;2023-11-21T01:51:34;3.17;;;1.80;;
54835;SDS011;43486;43.574;1.476;2023-11-21T01:54:00;4.38;;;1.63;;
54835;SDS011;43486;43.574;1.476;2023-11-21T01:56:26;7.63;;;2.30;;
54835;SDS011;43486;43.574;1.476;2023-11-21T01:58:51;4.80;;;2.17;;
54835;SDS011;43486;43.574;1.476;2023-11-21T02:01:17;2.22;;;1.20;;
54835;SDS011;43486;43.574;1.476;2023-11-21T02:03:43;2.25;;;1.38;;
54835;SDS011;43486;43.574;1.476;2023-11-21T02:06:08;4.93;;;2.05;;
54835;SDS011;43486;43.574;1.476;2023-11-21T02:08:34;3.92;;;1.42;;
54835;SDS011;43486;43.574;1.476;2023-11-21T02:10:59;3.53;;;1.63;;
54835;SDS011;43486;43.574;1.476;2023-11-21T02:13:25;2.15;;;1.45;;
54835;SDS011;43486;43.574;1.476;2023-11-21T02:15:50;2.53;;;1.10;;
54835;SDS011;43486;43.574;1.476;2023-11-21T02:18:17;4.60;;;1.85;;
54835;SDS011;43486;43.574;1.476;2023-11-21T02:20:43;3.08;;;1.27;;
54835;SDS011;43486;43.574;1.476;2023-11-21T02:23:08;5.82;;;2.05;;
54835;SDS011;43486;43.574;1.476;2023-11-21T02:25:33;2.58;;;1.10;;
54835;SDS011;43486;43.574;1.476;2023-11-21T02:28:00;4.40;;;1.38;;
54835;SDS011;43486;43.574;1.476;2023-11-21T02:30:27;2.00;;;1.20;;
54835;SDS011;43486;43.574;1.476;2023-11-21T02:32:53;5.43;;;1.58;;
54835;SDS011;43486;43.574;1.476;2023-11-21T02:35:20;3.78;;;1.55;;
54835;SDS011;43486;43.574;1.476;2023-11-21T02:37:50;3.15;;;1.35;;
54835;SDS011;43486;43.574;1.476;2023-11-21T02:40:16;4.05;;;1.75;;
54835;SDS011;43486;43.574;1.476;2023-11-21T02:42:49;5.65;;;2.42;;
54835;SDS011;43486;43.574;1.476;2023-11-21T02:45:19;4.55;;;2.15;;
54835;SDS011;43486;43.574;1.476;2023-11-21T02:47:45;4.18;;;1.63;;
54835;SDS011;43486;43.574;1.476;2023-11-21T02:50:11;3.22;;;1.73;;
54835;SDS011;43486;43.574;1.476;2023-11-21T02:52:37;4.72;;;1.63;;
54835;SDS011;43486;43.574;1.476;2023-11-21T02:55:03;5.50;;;1.90;;
54835;SDS011;43486;43.574;1.476;2023-11-21T02:57:29;4.13;;;1.35;;
54835;SDS011;43486;43.574;1.476;2023-11-21T02:59:55;5.28;;;1.48;;
54835;SDS011;43486;43.574;1.476;2023-11-21T03:02:20;11.02;;;1.92;;
54835;SDS011;43486;43.574;1.476;2023-11-21T03:04:46;2.78;;;1.40;;
54835;SDS011;43486;43.574;1.476;2023-11-21T03:07:13;2.70;;;1.40;;
54835;SDS011;43486;43.574;1.476;2023-11-21T03:09:38;6.43;;;1.77;;
54835;SDS011;43486;43.574;1.476;2023-11-21T03:12:04;7.10;;;1.45;;
54835;SDS011;43486;43.574;1.476;2023-11-21T03:14:30;2.55;;;1.17;;
54835;SDS011;43486;43.574;1.476;2023-11-21T03:16:55;2.30;;;1.35;;
54835;SDS011;43486;43.574;1.476;2023-11-21T03:19:21;9.57;;;1.80;;
54835;SDS011;43486;43.574;1.476;2023-11-21T03:21:46;2.83;;;1.05;;
54835;SDS011;43486;43.574;1.476;2023-11-21T03:24:12;3.65;;;1.40;;
54835;SDS011;43486;43.574;1.476;2023-11-21T03:26:37;7.32;;;1.67;;
54835;SDS011;43486;43.574;1.476;2023-11-21T03:29:03;6.13;;;1.52;;
54835;SDS011;43486;43.574;1.476;2023-11-21T03:31:29;4.38;;;1.45;;
54835;SDS011;43486;43.574;1.476;2023-11-21T03:33:55;2.13;;;1.33;;
54835;SDS011;43486;43.574;1.476;2023-11-21T03:36:20;2.38;;;1.38;;
54835;SDS011;43486;43.574;1.476;2023-11-21T03:38:48;2.45;;;1.00;;
54835;SDS011;43486;43.574;1.476;2023-11-21T03:41:13;2.63;;;1.45;;
54835;SDS011;43486;43.574;1.476;2023-11-21T03:43:39;2.60;;;1.40;;
54835;SDS011;43486;43.574;1.476;2023-11-21T03:46:05;1.83;;;1.33;;
54835;SDS011;43486;43.574;1.476;2023-11-21T03:48:30;4.55;;;1.10;;
54835;SDS011;43486;43.574;1.476;2023-11-21T03:50:58;3.20;;;1.58;;
54835;SDS011;43486;43.574;1.476;2023-11-21T03:53:23;2.13;;;1.15;;
54835;SDS011;43486;43.574;1.476;2023-11-21T03:55:49;1.85;;;1.20;;
54835;SDS011;43486;43.574;1.476;2023-11-21T03:58:15;4.47;;;1.80;;
54835;SDS011;43486;43.574;1.476;2023-11-21T04:00:40;4.68;;;1.88;;
54835;SDS011;43486;43.574;1.476;2023-11-21T04:03:06;2.65;;;1.75;;
54835;SDS011;43486;43.574;1.476;2023-11-21T04:05:32;4.38;;;1.25;;
54835;SDS011;43486;43.574;1.476;2023-11-21T04:07:57;3.35;;;1.48;;
54835;SDS011;43486;43.574;1.476;2023-11-21T04:10:23;2.30;;;1.65;;
54835;SDS011;43486;43.574;1.476;2023-11-21T04:12:48;2.55;;;1.42;;
54835;SDS011;43486;43.574;1.476;2023-11-21T04:15:14;3.25;;;1.60;;
54835;SDS011;43486;43.574;1.476;2023-11-21T04:17:39;2.90;;;1.52;;
54835;SDS011;43486;43.574;1.476;2023-11-21T04:20:06;5.40;;;1.05;;
54835;SDS011;43486;43.574;1.476;2023-11-21T04:22:35;4.60;;;1.65;;
54835;SDS011;43486;43.574;1.476;2023-11-21T04:25:01;2.70;;;1.50;;
54835;SDS011;43486;43.574;1.476;2023-11-21T04:27:27;2.53;;;1.70;;
54835;SDS011;43486;43.574;1.476;2023-11-21T04:29:52;3.45;;;1.70;;
54835;SDS011;43486;43.574;1.476;2023-11-21T04:32:18;1.48;;;1.02;;
54835;SDS011;43486;43.574;1.476;2023-11-21T04:34:43;2.42;;;1.58;;
54835;SDS011;43486;43.574;1.476;2023-11-21T04:37:08;2.08;;;1.13;;
54835;SDS011;43486;43.574;1.476;2023-11-21T04:39:35;0.85;;;0.80;;
54835;SDS011;43486;43.574;1.476;2023-11-21T04:42:01;1.52;;;0.95;;
54835;SDS011;43486;43.574;1.476;2023-11-21T04:44:26;3.63;;;2.22;;
54835;SDS011;43486;43.574;1.476;2023-11-21T04:46:51;2.75;;;1.45;;
54835;SDS011;43486;43.574;1.476;2023-11-21T04:49:17;4.65;;;1.02;;
54835;SDS011;43486;43.574;1.476;2023-11-21T04:51:42;4.55;;;2.13;;
54835;SDS011;43486;43.574;1.476;2023-11-21T04:54:07;2.97;;;1.67;;
54835;SDS011;43486;43.574;1.476;2023-11-21T04:56:33;2.88;;;1.83;;
54835;SDS011;43486;43.574;1.476;2023-11-21T04:58:58;1.40;;;1.00;;
54835;SDS011;43486;43.574;1.476;2023-11-21T05:01:23;4.65;;;1.33;;
54835;SDS011;43486;43.574;1.476;2023-11-21T05:03:49;2.95;;;1.35;;
54835;SDS011;43486;43.574;1.476;2023-11-21T05:06:14;5.30;;;1.30;;
54835;SDS011;43486;43.574;1.476;2023-11-21T05:08:40;1.98;;;1.00;;
54835;SDS011;43486;43.574;1.476;2023-11-21T05:11:05;2.92;;;1.73;;
54835;SDS011;43486;43.574;1.476;2023-11-21T05:13:33;3.40;;;1.05;;
54835;SDS011;43486;43.574;1.476;2023-11-21T05:15:59;1.42;;;1.02;;
54835;SDS011;43486;43.574;1.476;2023-11-21T05:18:24;3.72;;;1.40;;
54835;SDS011;43486;43.574;1.476;2023-11-21T05:20:54;3.60;;;0.88;;
54835;SDS011;43486;43.574;1.476;2023-11-21T05:23:20;3.67;;;1.85;;
54835;SDS011;43486;43.574;1.476;2023-11-21T05:25:46;3.10;;;1.73;;
54835;SDS011;43486;43.574;1.476;2023-11-21T05:28:11;2.40;;;1.10;;
54835;SDS011;43486;43.574;1.476;2023-11-21T05:30:37;6.47;;;2.53;;
54835;SDS011;43486;43.574;1.476;2023-11-21T05:33:04;2.60;;;1.02;;
54835;SDS011;43486;43.574;1.476;2023-11-21T05:35:29;6.07;;;1.38;;
54835;SDS011;43486;43.574;1.476;2023-11-21T05:37:55;4.53;;;1.13;;
54835;SDS011;43486;43.574;1.476;2023-11-21T05:40:20;1.23;;;0.98;;
54835;SDS011;43486;43.574;1.476;2023-11-21T05:42:47;3.38;;;1.70;;
54835;SDS011;43486;43.574;1.476;2023-11-21T05:45:13;4.22;;;1.83;;
54835;SDS011;43486;43.574;1.476;2023-11-21T05:47:39;4.40;;;2.08;;
54835;SDS011;43486;43.574;1.476;2023-11-21T05:50:06;1.55;;;0.93;;
54835;SDS011;43486;43.574;1.476;2023-11-21T05:52:35;2.03;;;1.23;;
54835;SDS011;43486;43.574;1.476;2023-11-21T05:55:05;2.65;;;1.73;;
54835;SDS011;43486;43.574;1.476;2023-11-21T05:57:33;2.38;;;1.25;;
54835;SDS011;43486;43.574;1.476;2023-11-21T06:00:02;2.97;;;0.82;;
54835;SDS011;43486;43.574;1.476;2023-11-21T06:02:36;1.13;;;0.90;;
54835;SDS011;43486;43.574;1.476;2023-11-21T06:05:04;4.97;;;1.70;;
54835;SDS011;43486;43.574;1.476;2023-11-21T06:07:31;1.35;;;1.00;;
54835;SDS011;43486;43.574;1.476;2023-11-21T06:09:57;3.08;;;1.27;;
54835;SDS011;43486;43.574;1.476;2023-11-21T06:12:22;1.48;;;0.90;;
54835;SDS011;43486;43.574;1.476;2023-11-21T06:14:47;3.42;;;1.08;;
54835;SDS011;43486;43.574;1.476;2023-11-21T06:17:13;2.33;;;1.27;;
54835;SDS011;43486;43.574;1.476;2023-11-21T06:19:38;4.53;;;1.20;;
54835;SDS011;43486;43.574;1.476;2023-11-21T06:22:04;6.28;;;1.40;;
54835;SDS011;43486;43.574;1.476;2023-11-21T06:24:31;1.80;;;1.00;;
54835;SDS011;43486;43.574;1.476;2023-11-21T06:26:56;2.88;;;1.25;;
54835;SDS011;43486;43.574;1.476;2023-11-21T06:29:22;1.90;;;0.85;;
54835;SDS011;43486;43.574;1.476;2023-11-21T06:31:47;3.80;;;1.40;;
54835;SDS011;43486;43.574;1.476;2023-11-21T06:34:12;4.03;;;1.42;;
54835;SDS011;43486;43.574;1.476;2023-11-21T06:36:38;1.48;;;1.05;;
54835;SDS011;43486;43.574;1.476;2023-11-21T06:39:04;3.58;;;1.60;;
54835;SDS011;43486;43.574;1.476;2023-11-21T06:41:32;3.13;;;1.58;;
54835;SDS011;43486;43.574;1.476;2023-11-21T06:43:58;2.90;;;1.30;;
54835;SDS011;43486;43.574;1.476;2023-11-21T06:46:24;4.10;;;1.52;;
54835;SDS011;43486;43.574;1.476;2023-11-21T06:48:49;2.40;;;1.67;;
54835;SDS011;43486;43.574;1.476;2023-11-21T06:51:15;3.17;;;1.20;;
54835;SDS011;43486;43.574;1.476;2023-11-21T06:53:40;3.00;;;1.05;;
54835;SDS011;43486;43.574;1.476;2023-11-21T06:56:15;1.20;;;1.00;;
54835;SDS011;43486;43.574;1.476;2023-11-21T06:58:44;1.30;;;1.05;;
54835;SDS011;43486;43.574;1.476;2023-11-21T07:01:10;3.95;;;1.55;;
54835;SDS011;43486;43.574;1.476;2023-11-21T07:03:36;2.95;;;1.27;;
54835;SDS011;43486;43.574;1.476;2023-11-21T07:06:02;1.17;;;0.80;;
54835;SDS011;43486;43.574;1.476;2023-11-21T07:08:28;1.23;;;0.80;;
54835;SDS011;43486;43.574;1.476;2023-11-21T07:10:53;5.03;;;1.65;;
54835;SDS011;43486;43.574;1.476;2023-11-21T07:13:19;9.02;;;1.83;;
54835;SDS011;43486;43.574;1.476;2023-11-21T07:15:44;3.25;;;1.05;;
54835;SDS011;43486;43.574;1.476;2023-11-21T07:18:09;3.05;;;1.00;;
54835;SDS011;43486;43.574;1.476;2023-11-21T07:20:35;3.00;;;1.77;;
54835;SDS011;43486;43.574;1.476;2023-11-21T07:23:00;4.97;;;1.20;;
54835;SDS011;43486;43.574;1.476;2023-11-21T07:25:26;3.35;;;1.83;;
54835;SDS011;43486;43.574;1.476;2023-11-21T07:27:51;3.30;;;1.88;;
54835;SDS011;43486;43.574;1.476;2023-11-21T07:30:17;8.10;;;1.77;;
54835;SDS011;43486;43.574;1.476;2023-11-21T07:32:43;2.30;;;1.05;;
54835;SDS011;43486;43.574;1.476;2023-11-21T07:35:12;7.78;;;1.08;;
54835;SDS011;43486;43.574;1.476;2023-11-21T07:37:38;1.15;;;1.00;;
54835;SDS011;43486;43.574;1.476;2023-11-21T07:40:03;3.00;;;1.23;;
54835;SDS011;43486;43.574;1.476;2023-11-21T07:42:29;4.25;;;1.63;;
54835;SDS011;43486;43.574;1.476;2023-11-21T07:44:54;4.80;;;2.22;;
54835;SDS011;43486;43.574;1.476;2023-11-21T07:47:20;2.67;;;1.10;;
54835;SDS011;43486;43.574;1.476;2023-11-21T07:49:45;2.95;;;1.45;;
54835;SDS011;43486;43.574;1.476;2023-11-21T07:52:12;7.85;;;1.35;;
54835;SDS011;43486;43.574;1.476;2023-11-21T07:54:39;3.80;;;1.25;;
54835;SDS011;43486;43.574;1.476;2023-11-21T07:57:05;4.47;;;1.60;;
54835;SDS011;43486;43.574;1.476;2023-11-21T07:59:30;3.40;;;1.10;;
54835;SDS011;43486;43.574;1.476;2023-11-21T08:01:56;2.17;;;1.20;;
54835;SDS011;43486;43.574;1.476;2023-11-21T08:04:21;2.65;;;1.15;;
54835;SDS011;43486;43.574;1.476;2023-11-21T08:06:47;2.08;;;1.63;;
54835;SDS011;43486;43.574;1.476;2023-11-21T08:09:12;2.67;;;1.38;;
54835;SDS011;43486;43.574;1.476;2023-11-21T08:11:37;1.75;;;0.90;;
54835;SDS011;43486;43.574;1.476;2023-11-21T08:14:04;2.15;;;1.15;;
54835;SDS011;43486;43.574;1.476;2023-11-21T08:16:30;2.55;;;1.67;;
54835;SDS011;43486;43.574;1.476;2023-11-21T08:18:55;11.73;;;2.70;;
54835;SDS011;43486;43.574;1.476;2023-11-21T08:21:21;4.60;;;1.60;;
54835;SDS011;43486;43.574;1.476;2023-11-21T08:23:48;3.22;;;1.45;;
54835;SDS011;43486;43.574;1.476;2023-11-21T08:26:18;1.75;;;0.88;;
54835;SDS011;43486;43.574;1.476;2023-11-21T08:28:44;2.50;;;1.25;;
54835;SDS011;43486;43.574;1.476;2023-11-21T08:31:09;5.03;;;1.10;;
54835;SDS011;43486;43.574;1.476;2023-11-21T08:33:34;13.60;;;1.63;;
54835;SDS011;43486;43.574;1.476;2023-11-21T08:36:00;33.25;;;2.45;;
54835;SDS011;43486;43.574;1.476;2023-11-21T08:38:26;7.05;;;1.30;;
54835;SDS011;43486;43.574;1.476;2023-11-21T08:40:53;1.90;;;1.10;;
54835;SDS011;43486;43.574;1.476;2023-11-21T08:43:19;9.73;;;1.27;;
54835;SDS011;43486;43.574;1.476;2023-11-21T08:45:45;2.55;;;1.15;;
54835;SDS011;43486;43.574;1.476;2023-11-21T08:48:10;5.13;;;1.20;;
54835;SDS011;43486;43.574;1.476;2023-11-21T08:50:36;2.42;;;1.08;;
54835;SDS011;43486;43.574;1.476;2023-11-21T08:53:02;4.45;;;1.58;;
54835;SDS011;43486;43.574;1.476;2023-11-21T08:55:27;3.10;;;1.15;;
54835;SDS011;43486;43.574;1.476;2023-11-21T08:57:53;7.05;;;1.40;;
54835;SDS011;43486;43.574;1.476;2023-11-21T09:00:19;13.90;;;1.60;;
54835;SDS011;43486;43.574;1.476;2023-11-21T09:02:44;3.00;;;1.35;;
54835;SDS011;43486;43.574;1.476;2023-11-21T09:05:10;4.35;;;1.10;;
54835;SDS011;43486;43.574;1.476;2023-11-21T09:07:36;5.80;;;2.00;;
54835;SDS011;43486;43.574;1.476;2023-11-21T09:10:03;3.30;;;1.35;;
54835;SDS011;43486;43.574;1.476;2023-11-21T09:12:29;1.73;;;1.45;;
54835;SDS011;43486;43.574;1.476;2023-11-21T09:14:54;5.28;;;2.15;;
54835;SDS011;43486;43.574;1.476;2023-11-21T09:17:19;15.15;;;3.45;;
54835;SDS011;43486;43.574;1.476;2023-11-21T09:19:45;6.72;;;3.95;;
54835;SDS011;43486;43.574;1.476;2023-11-21T09:22:14;8.57;;;4.78;;
54835;SDS011;43486;43.574;1.476;2023-11-21T09:24:40;12.55;;;4.80;;
54835;SDS011;43486;43.574;1.476;2023-11-21T09:27:05;8.60;;;4.53;;
54835;SDS011;43486;43.574;1.476;2023-11-21T09:29:30;6.13;;;3.78;;
54835;SDS011;43486;43.574;1.476;2023-11-21T09:31:56;6.82;;;4.47;;
54835;SDS011;43486;43.574;1.476;2023-11-21T09:34:24;6.50;;;3.75;;
54835;SDS011;43486;43.574;1.476;2023-11-21T09:36:52;19.55;;;3.83;;
54835;SDS011;43486;43.574;1.476;2023-11-21T09:39:18;7.07;;;3.72;;
54835;SDS011;43486;43.574;1.476;2023-11-21T09:41:50;7.18;;;3.45;;
54835;SDS011;43486;43.574;1.476;2023-11-21T09:44:19;6.70;;;2.60;;
54835;SDS011;43486;43.574;1.476;2023-11-21T09:46:48;7.05;;;3.40;;
54835;SDS011;43486;43.574;1.476;2023-11-21T09:49:20;7.40;;;2.50;;
54835;SDS011;43486;43.574;1.476;2023-11-21T09:51:50;7.47;;;2.63;;
54835;SDS011;43486;43.574;1.476;2023-11-21T09:54:17;6.70;;;3.00;;
54835;SDS011;43486;43.574;1.476;2023-11-21T09:56:44;3.65;;;2.28;;
54835;SDS011;43486;43.574;1.476;2023-11-21T09:59:11;4.38;;;2.53;;
54835;SDS011;43486;43.574;1.476;2023-11-21T10:01:38;3.50;;;2.08;;
54835;SDS011;43486;43.574;1.476;2023-11-21T10:04:04;4.45;;;2.28;;
54835;SDS011;43486;43.574;1.476;2023-11-21T10:06:36;7.75;;;3.10;;
54835;SDS011;43486;43.574;1.476;2023-11-21T10:09:09;5.63;;;2.67;;
54835;SDS011;43486;43.574;1.476;2023-11-21T10:11:39;3.40;;;1.60;;
54835;SDS011;43486;43.574;1.476;2023-11-21T10:14:06;4.03;;;2.38;;
54835;SDS011;43486;43.574;1.476;2023-11-21T10:16:35;5.78;;;2.28;;
54835;SDS011;43486;43.574;1.476;2023-11-21T10:19:02;4.20;;;2.30;;
54835;SDS011;43486;43.574;1.476;2023-11-21T10:21:28;5.63;;;2.42;;
54835;SDS011;43486;43.574;1.476;2023-11-21T10:23:54;4.30;;;1.83;;
54835;SDS011;43486;43.574;1.476;2023-11-21T10:26:20;3.38;;;2.17;;
54835;SDS011;43486;43.574;1.476;2023-11-21T10:28:55;8.68;;;2.15;;
54835;SDS011;43486;43.574;1.476;2023-11-21T10:31:24;3.97;;;1.88;;
54835;SDS011;43486;43.574;1.476;2023-11-21T10:33:51;3.40;;;1.77;;
54835;SDS011;43486;43.574;1.476;2023-11-21T10:36:26;12.43;;;2.30;;
54835;SDS011;43486;43.574;1.476;2023-11-21T10:38:52;5.75;;;2.20;;
54835;SDS011;43486;43.574;1.476;2023-11-21T10:41:19;6.22;;;1.77;;
54835;SDS011;43486;43.574;1.476;2023-11-21T10:43:45;6.50;;;1.67;;
54835;SDS011;43486;43.574;1.476;2023-11-21T10:46:10;1.75;;;1.20;;
54835;SDS011;43486;43.574;1.476;2023-11-21T10:48:36;4.15;;;1.73;;
54835;SDS011;43486;43.574;1.476;2023-11-21T10:51:11;3.60;;;1.90;;
54835;SDS011;43486;43.574;1.476;2023-11-21T10:53:40;3.92;;;2.08;;
54835;SDS011;43486;43.574;1.476;2023-11-21T10:56:08;2.25;;;1.40;;
54835;SDS011;43486;43.574;1.476;2023-11-21T10:58:42;2.38;;;1.27;;
54835;SDS011;43486;43.574;1.476;2023-11-21T11:01:08;2.92;;;1.40;;
54835;SDS011;43486;43.574;1.476;2023-11-21T11:03:36;1.65;;;1.30;;
54835;SDS011;43486;43.574;1.476;2023-11-21T11:06:03;2.85;;;1.40;;
54835;SDS011;43486;43.574;1.476;2023-11-21T11:08:29;6.50;;;1.73;;
54835;SDS011;43486;43.574;1.476;2023-11-21T11:10:55;3.00;;;1.38;;
54835;SDS011;43486;43.574;1.476;2023-11-21T11:13:21;4.47;;;1.73;;
54835;SDS011;43486;43.574;1.476;2023-11-21T11:15:49;3.92;;;1.60;;
54835;SDS011;43486;43.574;1.476;2023-11-21T11:18:15;4.15;;;1.90;;
54835;SDS011;43486;43.574;1.476;2023-11-21T11:20:42;3.33;;;1.63;;
54835;SDS011;43486;43.574;1.476;2023-11-21T11:29:18;2.55;;;1.73;;
54835;SDS011;43486;43.574;1.476;2023-11-21T11:35:01;1.10;;;1.00;;
54835;SDS011;43486;43.574;1.476;2023-11-21T11:37:50;3.80;;;1.50;;
54835;SDS011;43486;43.574;1.476;2023-11-21T11:40:15;4.68;;;1.50;;
54835;SDS011;43486;43.574;1.476;2023-11-21T11:42:55;3.83;;;2.00;;
54835;SDS011;43486;43.574;1.476;2023-11-21T11:45:21;3.60;;;1.85;;
54835;SDS011;43486;43.574;1.476;2023-11-21T11:47:47;1.77;;;0.98;;
54835;SDS011;43486;43.574;1.476;2023-11-21T11:50:13;13.45;;;1.35;;
54835;SDS011;43486;43.574;1.476;2023-11-21T11:55:12;2.47;;;1.27;;
54835;SDS011;43486;43.574;1.476;2023-11-21T11:57:39;5.18;;;1.58;;
54835;SDS011;43486;43.574;1.476;2023-11-21T12:02:47;4.65;;;2.30;;
54835;SDS011;43486;43.574;1.476;2023-11-21T12:05:20;3.92;;;1.55;;
54835;SDS011;43486;43.574;1.476;2023-11-21T12:10:15;2.08;;;1.58;;
54835;SDS011;43486;43.574;1.476;2023-11-21T12:13:04;5.00;;;1.38;;
54835;SDS011;43486;43.574;1.476;2023-11-21T12:15:35;2.83;;;1.33;;
54835;SDS011;43486;43.574;1.476;2023-11-21T12:18:00;4.50;;;2.80;;
54835;SDS011;43486;43.574;1.476;2023-11-21T12:20:26;4.20;;;2.20;;
54835;SDS011;43486;43.574;1.476;2023-11-21T12:25:20;4.10;;;1.27;;
54835;SDS011;43486;43.574;1.476;2023-11-21T12:27:46;4.70;;;1.40;;
54835;SDS011;43486;43.574;1.476;2023-11-21T12:30:14;2.50;;;1.48;;
54835;SDS011;43486;43.574;1.476;2023-11-21T12:32:41;1.85;;;1.10;;
54835;SDS011;43486;43.574;1.476;2023-11-21T12:35:08;2.53;;;1.45;;
54835;SDS011;43486;43.574;1.476;2023-11-21T12:37:35;2.35;;;1.23;;
54835;SDS011;43486;43.574;1.476;2023-11-21T12:40:02;1.30;;;1.00;;
54835;SDS011;43486;43.574;1.476;2023-11-21T12:42:27;3.35;;;1.42;;
54835;SDS011;43486;43.574;1.476;2023-11-21T12:47:40;3.17;;;1.40;;
54835;SDS011;43486;43.574;1.476;2023-11-21T12:50:10;4.30;;;1.65;;
54835;SDS011;43486;43.574;1.476;2023-11-21T12:52:42;2.17;;;1.20;;
54835;SDS011;43486;43.574;1.476;2023-11-21T12:55:18;5.15;;;1.65;;
54835;SDS011;43486;43.574;1.476;2023-11-21T12:57:50;6.30;;;1.95;;
54835;SDS011;43486;43.574;1.476;2023-11-21T13:00:16;5.18;;;2.20;;
54835;SDS011;43486;43.574;1.476;2023-11-21T13:02:55;2.83;;;1.40;;
54835;SDS011;43486;43.574;1.476;2023-11-21T13:05:28;2.55;;;1.67;;
54835;SDS011;43486;43.574;1.476;2023-11-21T13:08:02;2.58;;;1.50;;
54835;SDS011;43486;43.574;1.476;2023-11-21T13:12:58;0.98;;;0.88;;
54835;SDS011;43486;43.574;1.476;2023-11-21T13:15:25;2.40;;;1.25;;
54835;SDS011;43486;43.574;1.476;2023-11-21T13:17:52;2.35;;;1.30;;
54835;SDS011;43486;43.574;1.476;2023-11-21T13:20:18;2.75;;;1.45;;
54835;SDS011;43486;43.574;1.476;2023-11-21T13:22:52;3.40;;;1.30;;
54835;SDS011;43486;43.574;1.476;2023-11-21T13:25:20;1.55;;;1.10;;
54835;SDS011;43486;43.574;1.476;2023-11-21T13:27:46;2.72;;;1.52;;
54835;SDS011;43486;43.574;1.476;2023-11-21T13:30:12;5.22;;;1.70;;
54835;SDS011;43486;43.574;1.476;2023-11-21T13:32:40;3.67;;;1.67;;
54835;SDS011;43486;43.574;1.476;2023-11-21T13:35:07;1.75;;;1.13;;
54835;SDS011;43486;43.574;1.476;2023-11-21T13:37:33;6.78;;;1.42;;
54835;SDS011;43486;43.574;1.476;2023-11-21T13:39:59;4.55;;;1.05;;
54835;SDS011;43486;43.574;1.476;2023-11-21T13:42:28;2.13;;;1.20;;
54835;SDS011;43486;43.574;1.476;2023-11-21T13:44:57;2.20;;;1.42;;
54835;SDS011;43486;43.574;1.476;2023-11-21T13:47:22;2.05;;;1.10;;
54835;SDS011;43486;43.574;1.476;2023-11-21T13:49:50;2.22;;;1.10;;
54835;SDS011;43486;43.574;1.476;2023-11-21T13:52:16;1.13;;;1.00;;
54835;SDS011;43486;43.574;1.476;2023-11-21T13:54:44;4.32;;;1.38;;
54835;SDS011;43486;43.574;1.476;2023-11-21T13:57:09;2.63;;;1.33;;
54835;SDS011;43486;43.574;1.476;2023-11-21T13:59:34;2.33;;;1.23;;
54835;SDS011;43486;43.574;1.476;2023-11-21T14:02:01;2.63;;;1.25;;
54835;SDS011;43486;43.574;1.476;2023-11-21T14:04:42;1.77;;;1.27;;
54835;SDS011;43486;43.574;1.476;2023-11-21T14:07:21;2.88;;;1.38;;
54835;SDS011;43486;43.574;1.476;2023-11-21T14:09:56;3.17;;;1.33;;
54835;SDS011;43486;43.574;1.476;2023-11-21T14:12:23;4.85;;;1.55;;
54835;SDS011;43486;43.574;1.476;2023-11-21T14:14:49;1.73;;;0.98;;
54835;SDS011;43486;43.574;1.476;2023-11-21T14:17:14;1.85;;;1.30;;
54835;SDS011;43486;43.574;1.476;2023-11-21T14:19:40;1.65;;;1.08;;
54835;SDS011;43486;43.574;1.476;2023-11-21T14:22:08;2.67;;;1.25;;
54835;SDS011;43486;43.574;1.476;2023-11-21T14:24:36;1.23;;;0.98;;
54835;SDS011;43486;43.574;1.476;2023-11-21T14:27:02;1.95;;;1.38;;
54835;SDS011;43486;43.574;1.476;2023-11-21T14:29:28;2.05;;;0.98;;
54835;SDS011;43486;43.574;1.476;2023-11-21T14:31:54;2.10;;;1.00;;
54835;SDS011;43486;43.574;1.476;2023-11-21T14:34:22;1.83;;;1.15;;
54835;SDS011;43486;43.574;1.476;2023-11-21T14:36:49;1.45;;;1.10;;
54835;SDS011;43486;43.574;1.476;2023-11-21T14:39:14;0.88;;;0.88;;
54835;SDS011;43486;43.574;1.476;2023-11-21T14:41:51;3.70;;;1.05;;
54835;SDS011;43486;43.574;1.476;2023-11-21T14:44:25;2.40;;;1.10;;
54835;SDS011;43486;43.574;1.476;2023-11-21T14:46:57;2.72;;;1.27;;
54835;SDS011;43486;43.574;1.476;2023-11-21T14:49:24;4.38;;;1.52;;
54835;SDS011;43486;43.574;1.476;2023-11-21T14:51:53;2.72;;;1.40;;
54835;SDS011;43486;43.574;1.476;2023-11-21T14:54:28;2.03;;;1.30;;
54835;SDS011;43486;43.574;1.476;2023-11-21T14:57:09;1.75;;;1.10;;
54835;SDS011;43486;43.574;1.476;2023-11-21T14:59:37;3.13;;;1.73;;
54835;SDS011;43486;43.574;1.476;2023-11-21T15:02:07;2.38;;;1.40;;
54835;SDS011;43486;43.574;1.476;2023-11-21T15:04:46;2.63;;;1.27;;
54835;SDS011;43486;43.574;1.476;2023-11-21T15:07:13;2.13;;;1.30;;
54835;SDS011;43486;43.574;1.476;2023-11-21T15:09:38;1.60;;;0.98;;
54835;SDS011;43486;43.574;1.476;2023-11-21T15:12:07;2.10;;;1.10;;